createdAt,value
2023-03-17T00:00:21.595Z,48.95
2023-03-17T00:02:49.379Z,47.35
2023-03-17T00:05:19.102Z,48.17
2023-03-17T00:07:46.301Z,51.47
2023-03-17T00:10:23.365Z,52.58
2023-03-17T00:12:50.954Z,50.20
2023-03-17T00:15:17.868Z,48.63
2023-03-17T00:17:45.219Z,42.22
2023-03-17T00:20:13.388Z,50.40
2023-03-17T00:22:39.967Z,45.67
2023-03-17T00:25:27.313Z,43.42
2023-03-17T00:27:54.728Z,41.58
2023-03-17T00:30:21.793Z,39.10
2023-03-17T00:32:51.677Z,40.97
2023-03-17T00:35:21.837Z,39.78
2023-03-17T00:37:48.979Z,38.63
2023-03-17T00:40:16.696Z,38.67
2023-03-17T00:42:43.345Z,36.65
2023-03-17T00:45:10.649Z,36.05
2023-03-17T00:47:38.437Z,35.60
2023-03-17T00:50:05.157Z,34.83
2023-03-17T00:52:31.628Z,40.03
2023-03-17T00:54:58.623Z,34.40
2023-03-17T00:57:25.111Z,35.83
2023-03-17T00:59:51.501Z,37.60
2023-03-17T01:02:18.493Z,40.92
2023-03-17T01:04:52.696Z,41.30
2023-03-17T01:07:22.956Z,35.45
2023-03-17T01:09:49.875Z,36.53
2023-03-17T01:12:16.784Z,37.70
2023-03-17T01:14:43.688Z,36.83
2023-03-17T01:17:16.791Z,37.83
2023-03-17T01:19:43.270Z,43.78
2023-03-17T01:22:09.795Z,44.95
2023-03-17T01:24:36.391Z,46.47
2023-03-17T01:27:03.352Z,44.90
2023-03-17T01:29:29.837Z,41.60
2023-03-17T01:31:56.295Z,42.78
2023-03-17T01:34:23.174Z,49.25
2023-03-17T01:36:50.226Z,45.67
2023-03-17T01:39:16.933Z,47.92
2023-03-17T01:41:43.330Z,46.78
2023-03-17T01:44:14.173Z,49.33
2023-03-17T01:46:40.636Z,46.88
2023-03-17T01:49:24.137Z,44.90
2023-03-17T01:52:02.910Z,49.88
2023-03-17T01:54:32.741Z,48.40
2023-03-17T01:57:02.006Z,45.90
2023-03-17T01:59:31.222Z,45.05
2023-03-17T02:01:59.964Z,47.08
2023-03-17T02:04:29.633Z,45.50
2023-03-17T02:06:58.767Z,44.90
2023-03-17T02:09:26.474Z,47.00
2023-03-17T02:11:53.393Z,50.45
2023-03-17T02:14:20.473Z,52.10
2023-03-17T02:16:47.043Z,47.50
2023-03-17T02:19:15.856Z,47.83
2023-03-17T02:21:42.358Z,49.40
2023-03-17T02:24:15.745Z,48.72
2023-03-17T02:29:09.270Z,45.65
2023-03-17T02:31:35.936Z,51.88
2023-03-17T02:34:02.761Z,50.70
2023-03-17T02:36:29.319Z,52.58
2023-03-17T02:38:56.662Z,51.60
2023-03-17T02:41:23.427Z,50.00
2023-03-17T02:43:49.992Z,50.85
2023-03-17T02:46:16.884Z,48.97
2023-03-17T02:48:43.459Z,50.80
2023-03-17T02:51:09.849Z,50.55
2023-03-17T02:53:36.734Z,53.13
2023-03-17T02:56:03.814Z,49.08
2023-03-17T02:58:30.446Z,51.28
2023-03-17T03:00:56.846Z,50.47
2023-03-17T03:03:23.384Z,49.58
2023-03-17T03:05:49.875Z,49.85
2023-03-17T03:08:17.023Z,51.83
2023-03-17T03:10:43.570Z,50.88
2023-03-17T03:13:10.081Z,50.72
2023-03-17T03:15:36.665Z,51.08
2023-03-17T03:18:03.201Z,52.13
2023-03-17T03:20:29.891Z,50.22
2023-03-17T03:22:56.435Z,52.58
2023-03-17T03:25:22.831Z,52.72
2023-03-17T03:27:49.501Z,53.05
2023-03-17T03:30:15.935Z,52.15
2023-03-17T03:32:42.363Z,51.00
2023-03-17T03:35:09.140Z,50.10
2023-03-17T03:37:35.613Z,46.65
2023-03-17T03:40:02.277Z,52.42
2023-03-17T03:42:28.742Z,47.85
2023-03-17T03:44:55.335Z,50.67
2023-03-17T03:47:21.776Z,51.08
2023-03-17T03:49:48.315Z,50.17
2023-03-17T03:52:14.806Z,51.50
2023-03-17T03:54:41.276Z,50.03
2023-03-17T03:57:07.949Z,49.15
2023-03-17T03:59:34.338Z,53.05
2023-03-17T04:02:00.791Z,54.97
2023-03-17T04:04:27.207Z,48.33
2023-03-17T04:06:53.701Z,52.90
2023-03-17T04:09:20.124Z,53.10
2023-03-17T04:11:46.842Z,53.58
2023-03-17T04:14:13.270Z,50.47
2023-03-17T04:16:42.224Z,49.17
2023-03-17T04:19:11.203Z,55.47
2023-03-17T04:21:37.810Z,52.40
2023-03-17T04:24:05.188Z,54.22
2023-03-17T04:26:32.101Z,51.15
2023-03-17T04:28:58.978Z,52.58
2023-03-17T04:31:25.860Z,54.25
2023-03-17T04:33:52.565Z,54.53
2023-03-17T04:36:23.192Z,52.78
2023-03-17T04:38:49.681Z,49.35
2023-03-17T04:41:16.244Z,51.83
2023-03-17T04:43:42.665Z,52.38
2023-03-17T04:46:09.169Z,53.45
2023-03-17T04:48:36.045Z,51.67
2023-03-17T04:51:02.533Z,47.05
2023-03-17T04:53:28.942Z,50.80
2023-03-17T04:55:56.601Z,48.88
2023-03-17T04:58:30.757Z,45.97
2023-03-17T05:00:57.989Z,45.60
2023-03-17T05:03:27.522Z,47.20
2023-03-17T05:05:54.354Z,51.40
2023-03-17T05:08:20.981Z,52.47
2023-03-17T05:10:47.475Z,49.22
2023-03-17T05:13:13.984Z,47.28
2023-03-17T05:15:40.582Z,47.00
2023-03-17T05:18:06.990Z,45.78
2023-03-17T05:20:33.629Z,48.70
2023-03-17T05:23:00.145Z,44.95
2023-03-17T05:25:26.651Z,45.95
2023-03-17T05:27:53.048Z,43.55
2023-03-17T05:30:19.511Z,44.78
2023-03-17T05:32:46.902Z,42.58
2023-03-17T05:35:13.641Z,42.13
2023-03-17T05:37:40.113Z,41.25
2023-03-17T05:40:08.290Z,41.67
2023-03-17T05:42:34.748Z,38.17
2023-03-17T05:45:01.242Z,40.53
2023-03-17T05:47:27.987Z,42.05
2023-03-17T05:49:54.456Z,40.90
2023-03-17T05:52:20.912Z,37.30
2023-03-17T05:54:49.033Z,37.17
2023-03-17T05:57:16.267Z,37.50
2023-03-17T05:59:42.875Z,37.60
2023-03-17T06:02:09.646Z,36.75
2023-03-17T06:04:36.138Z,33.83
2023-03-17T06:07:02.692Z,34.67
2023-03-17T06:09:29.196Z,34.97
2023-03-17T06:11:55.734Z,33.10
2023-03-17T06:14:22.114Z,32.65
2023-03-17T06:16:48.522Z,30.65
2023-03-17T06:19:15.077Z,33.05
2023-03-17T06:21:41.718Z,31.40
2023-03-17T06:24:08.424Z,30.95
2023-03-17T06:26:35.009Z,29.55
2023-03-17T06:29:01.771Z,27.67
2023-03-17T06:31:28.209Z,28.83
2023-03-17T06:33:54.820Z,28.67
2023-03-17T06:36:21.720Z,30.27
2023-03-17T06:38:48.148Z,29.13
2023-03-17T06:41:14.966Z,26.48
2023-03-17T06:43:41.986Z,27.73
2023-03-17T06:46:08.676Z,28.42
2023-03-17T06:48:35.309Z,26.35
2023-03-17T06:51:01.958Z,27.58
2023-03-17T06:53:28.388Z,28.70
2023-03-17T06:55:54.880Z,27.70
2023-03-17T06:58:21.822Z,27.48
2023-03-17T07:00:48.980Z,27.20
2023-03-17T07:03:15.903Z,27.50
2023-03-17T07:05:42.796Z,27.73
2023-03-17T07:08:09.752Z,28.02
2023-03-17T07:10:36.728Z,26.00
2023-03-17T07:13:05.085Z,26.77
2023-03-17T07:15:35.886Z,30.45
2023-03-17T07:18:02.472Z,27.33
2023-03-17T07:20:28.919Z,30.48
2023-03-17T07:22:55.325Z,26.70
2023-03-17T07:25:22.472Z,34.78
2023-03-17T07:27:49.079Z,30.25
2023-03-17T07:30:19.069Z,30.08
2023-03-17T07:32:46.377Z,25.27
2023-03-17T07:35:12.945Z,24.90
2023-03-17T07:37:39.514Z,25.65
2023-03-17T07:40:06.510Z,21.20
2023-03-17T07:42:34.013Z,17.70
2023-03-17T07:45:00.625Z,18.67
2023-03-17T07:47:27.165Z,18.42
2023-03-17T07:49:54.607Z,19.67
2023-03-17T07:52:21.038Z,15.30
2023-03-17T07:54:49.847Z,17.02
2023-03-17T07:57:16.859Z,15.10
2023-03-17T07:59:43.456Z,16.10
2023-03-17T08:02:14.143Z,14.95
2023-03-17T08:04:41.438Z,15.48
2023-03-17T08:07:07.978Z,14.05
2023-03-17T08:09:34.445Z,13.57
2023-03-17T08:12:01.197Z,13.95
2023-03-17T08:14:27.618Z,15.95
2023-03-17T08:16:54.249Z,12.82
2023-03-17T08:19:21.981Z,11.60
2023-03-17T08:21:48.557Z,11.65
2023-03-17T08:24:15.506Z,10.95
2023-03-17T08:26:42.637Z,11.98
2023-03-17T08:29:09.655Z,11.93
2023-03-17T08:31:36.505Z,10.82
2023-03-17T08:34:04.432Z,10.63
2023-03-17T08:36:30.842Z,10.70
2023-03-17T08:38:57.712Z,11.07
2023-03-17T08:41:24.715Z,12.95
2023-03-17T08:43:51.667Z,9.43
2023-03-17T08:46:22.419Z,8.63
2023-03-17T08:48:51.056Z,9.27
2023-03-17T08:51:19.458Z,11.02
2023-03-17T08:53:47.367Z,8.95
2023-03-17T08:56:14.163Z,8.75
2023-03-17T08:58:40.640Z,10.10
2023-03-17T09:01:07.187Z,8.27
2023-03-17T09:03:33.867Z,7.97
2023-03-17T09:06:00.439Z,8.98
2023-03-17T09:08:27.688Z,8.43
2023-03-17T09:10:54.290Z,7.72
2023-03-17T09:13:21.955Z,10.05
2023-03-17T09:15:50.670Z,8.32
2023-03-17T09:18:20.770Z,7.47
2023-03-17T09:20:48.398Z,8.73
2023-03-17T09:23:15.929Z,7.93
2023-03-17T09:25:42.859Z,10.27
2023-03-17T09:28:11.281Z,9.95
2023-03-17T09:30:39.994Z,7.22
2023-03-17T09:33:06.534Z,8.73
2023-03-17T09:35:33.159Z,10.93
2023-03-17T09:37:59.574Z,7.68
2023-03-17T09:40:32.422Z,9.40
2023-03-17T09:43:08.121Z,8.35
2023-03-17T09:45:36.830Z,7.20
2023-03-17T09:48:22.591Z,8.88
2023-03-17T09:50:57.538Z,8.00
2023-03-17T09:53:27.674Z,9.23
2023-03-17T09:55:58.778Z,7.57
2023-03-17T09:58:30.505Z,5.18
2023-03-17T10:00:57.226Z,8.02
2023-03-17T10:03:25.183Z,6.30
2023-03-17T10:05:52.015Z,7.85
2023-03-17T10:08:30.538Z,6.43
2023-03-17T10:11:16.252Z,5.35
2023-03-17T10:13:50.594Z,6.97
2023-03-17T10:16:18.773Z,6.75
2023-03-17T10:18:48.256Z,8.25
2023-03-17T10:21:17.872Z,7.85
2023-03-17T10:23:45.520Z,7.45
2023-03-17T10:26:31.573Z,6.07
2023-03-17T10:28:59.789Z,7.35
2023-03-17T10:31:34.609Z,6.90
2023-03-17T10:34:24.138Z,5.25
2023-03-17T10:36:53.946Z,6.95
2023-03-17T10:39:21.629Z,7.03
2023-03-17T10:42:07.917Z,8.25
2023-03-17T10:44:34.731Z,6.25
2023-03-17T10:47:01.923Z,6.82
2023-03-17T10:49:32.150Z,6.53
2023-03-17T10:51:58.752Z,6.63
2023-03-17T10:54:26.342Z,8.98
2023-03-17T10:57:00.368Z,5.93
2023-03-17T10:59:28.657Z,8.23
2023-03-17T11:02:05.674Z,7.75
2023-03-17T11:04:33.987Z,7.82
2023-03-17T11:07:05.253Z,7.63
2023-03-17T11:09:35.239Z,6.95
2023-03-17T11:12:03.579Z,7.07
2023-03-17T11:14:30.422Z,10.82
2023-03-17T11:16:59.145Z,8.07
2023-03-17T11:19:46.062Z,11.13
2023-03-17T11:22:15.470Z,6.15
2023-03-17T11:24:51.652Z,5.95
2023-03-17T11:27:22.346Z,6.78
2023-03-17T11:29:52.676Z,7.03
2023-03-17T11:32:31.676Z,8.32
2023-03-17T11:35:06.260Z,6.35
2023-03-17T11:38:01.931Z,10.40
2023-03-17T11:40:46.875Z,5.78
2023-03-17T11:43:20.589Z,8.13
2023-03-17T11:45:49.970Z,10.35
2023-03-17T11:48:34.283Z,6.38
2023-03-17T11:51:00.809Z,7.03
2023-03-17T11:53:36.577Z,8.82
2023-03-17T11:56:05.492Z,6.70
2023-03-17T11:58:35.550Z,7.47
2023-03-17T12:01:03.030Z,6.10
2023-03-17T12:03:46.095Z,5.50
2023-03-17T12:06:15.823Z,6.03
2023-03-17T12:08:45.893Z,6.65
2023-03-17T12:11:14.788Z,8.82
2023-03-17T12:13:43.463Z,8.20
2023-03-17T12:16:12.811Z,7.93
2023-03-17T12:18:58.134Z,8.20
2023-03-17T12:21:32.870Z,5.60
2023-03-17T12:24:05.547Z,11.60
2023-03-17T12:26:42.977Z,7.32
2023-03-17T12:29:12.330Z,15.73
2023-03-17T12:31:44.701Z,9.07
2023-03-17T12:34:16.930Z,16.85
2023-03-17T12:36:43.950Z,6.95
2023-03-17T12:39:14.794Z,7.03
2023-03-17T12:41:41.544Z,8.90
2023-03-17T12:44:16.495Z,6.93
2023-03-17T12:47:01.943Z,6.53
2023-03-17T12:49:37.340Z,8.70
2023-03-17T12:52:13.154Z,6.78
2023-03-17T12:54:44.755Z,6.20
2023-03-17T12:57:19.085Z,6.80
2023-03-17T12:59:47.718Z,7.88
2023-03-17T13:02:29.359Z,6.70
2023-03-17T13:05:00.938Z,7.18
2023-03-17T13:07:36.783Z,5.82
2023-03-17T13:10:11.677Z,6.90
2023-03-17T13:12:38.220Z,5.90
2023-03-17T13:15:20.832Z,6.15
2023-03-17T13:17:47.479Z,6.77
2023-03-17T13:20:16.166Z,6.43
2023-03-17T13:22:42.791Z,7.32
2023-03-17T13:25:27.417Z,6.95
2023-03-17T13:27:54.021Z,7.15
2023-03-17T13:30:26.051Z,6.93
2023-03-17T13:32:56.980Z,7.45
2023-03-17T13:35:39.015Z,8.73
2023-03-17T13:38:24.018Z,6.70
2023-03-17T13:40:50.703Z,7.75
2023-03-17T13:43:17.135Z,8.32
2023-03-17T13:45:44.887Z,10.10
2023-03-17T13:48:37.587Z,9.07
2023-03-17T13:51:07.537Z,8.82
2023-03-17T13:53:35.927Z,8.18
2023-03-17T13:56:21.284Z,5.78
2023-03-17T13:58:50.453Z,6.97
2023-03-17T14:01:17.214Z,7.35
2023-03-17T14:03:48.718Z,8.77
2023-03-17T14:06:15.958Z,6.90
2023-03-17T14:08:53.630Z,6.45
2023-03-17T14:11:27.189Z,9.00
2023-03-17T14:16:22.818Z,8.60
2023-03-17T14:18:51.898Z,7.05
2023-03-17T14:21:21.173Z,7.57
2023-03-17T14:23:57.677Z,10.45
2023-03-17T14:26:24.900Z,9.35
2023-03-17T14:28:51.602Z,7.45
2023-03-17T14:31:25.620Z,8.48
2023-03-17T14:33:54.322Z,6.97
2023-03-17T14:36:21.062Z,7.80
2023-03-17T14:38:55.072Z,7.32
2023-03-17T14:41:22.862Z,7.47
2023-03-17T14:43:50.294Z,10.55
2023-03-17T14:46:21.444Z,9.63
2023-03-17T14:48:49.206Z,8.45
2023-03-17T14:51:15.722Z,7.78
2023-03-17T14:53:43.323Z,9.15
2023-03-17T14:56:09.835Z,7.97
2023-03-17T14:58:38.084Z,6.90
2023-03-17T15:01:06.815Z,8.10
2023-03-17T15:03:37.171Z,8.55
2023-03-17T15:06:06.243Z,6.78
2023-03-17T15:08:36.488Z,8.30
2023-03-17T15:11:03.959Z,8.95
2023-03-17T15:13:33.466Z,7.00
2023-03-17T15:16:05.299Z,8.45
2023-03-17T15:18:32.012Z,10.13
2023-03-17T15:21:00.287Z,8.02
2023-03-17T15:23:28.913Z,8.93
2023-03-17T15:25:56.452Z,8.63
2023-03-17T15:28:25.187Z,7.60
2023-03-17T15:30:52.882Z,7.45
2023-03-17T15:33:19.522Z,7.78
2023-03-17T15:35:45.983Z,8.13
2023-03-17T15:38:12.968Z,8.63
2023-03-17T15:40:39.633Z,7.68
2023-03-17T15:43:06.358Z,8.48
2023-03-17T15:45:32.849Z,8.95
2023-03-17T15:47:59.276Z,9.55
2023-03-17T15:50:29.346Z,8.98
2023-03-17T15:52:56.497Z,7.88
2023-03-17T15:55:24.288Z,10.30
2023-03-17T15:57:55.182Z,9.82
2023-03-17T16:00:22.963Z,9.55
2023-03-17T16:02:51.856Z,8.82
2023-03-17T16:05:19.998Z,9.18
2023-03-17T16:07:47.129Z,10.18
2023-03-17T16:10:17.712Z,9.60
2023-03-17T16:12:44.664Z,7.70
2023-03-17T16:15:22.519Z,10.48
2023-03-17T16:17:51.644Z,9.18
2023-03-17T16:20:31.424Z,9.55
2023-03-17T16:23:00.957Z,8.13
2023-03-17T16:25:31.474Z,9.35
2023-03-17T16:28:01.724Z,9.40
2023-03-17T16:30:32.458Z,8.07
2023-03-17T16:33:03.834Z,9.02
2023-03-17T16:35:30.636Z,10.27
2023-03-17T16:37:57.099Z,11.48
2023-03-17T16:40:27.434Z,12.18
2023-03-17T16:42:54.156Z,10.10
2023-03-17T16:45:32.702Z,10.75
2023-03-17T16:47:59.707Z,11.38
2023-03-17T16:50:27.961Z,11.95
2023-03-17T16:52:54.483Z,10.63
2023-03-17T16:55:21.490Z,12.98
2023-03-17T16:57:49.260Z,10.57
2023-03-17T17:00:20.689Z,11.63
2023-03-17T17:02:49.651Z,12.82
2023-03-17T17:05:17.617Z,11.05
2023-03-17T17:07:44.219Z,15.07
2023-03-17T17:10:11.774Z,10.23
2023-03-17T17:12:38.417Z,10.98
2023-03-17T17:15:05.656Z,15.05
2023-03-17T17:17:32.157Z,13.27
2023-03-17T17:19:58.656Z,12.40
2023-03-17T17:22:25.353Z,15.57
2023-03-17T17:24:51.793Z,15.60
2023-03-17T17:27:18.185Z,17.55
2023-03-17T17:29:44.645Z,18.45
2023-03-17T17:32:11.141Z,19.98
2023-03-17T17:34:37.540Z,24.90
2023-03-17T17:37:04.028Z,21.50
2023-03-17T17:39:30.575Z,26.15
2023-03-17T17:41:56.980Z,29.45
2023-03-17T17:44:23.402Z,29.92
2023-03-17T17:46:49.946Z,29.58
2023-03-17T17:49:16.558Z,27.55
2023-03-17T17:51:43.452Z,28.25
2023-03-17T17:54:10.272Z,31.77
2023-03-17T17:56:40.121Z,32.95
2023-03-17T17:59:06.664Z,36.47
2023-03-17T18:01:33.352Z,39.72
2023-03-17T18:03:59.796Z,38.38
2023-03-17T18:06:26.339Z,32.72
2023-03-17T18:08:52.919Z,39.40
2023-03-17T18:11:19.473Z,34.53
2023-03-17T18:13:45.950Z,28.88
2023-03-17T18:16:14.973Z,28.98
2023-03-17T18:18:43.290Z,27.35
2023-03-17T18:21:09.788Z,27.55
2023-03-17T18:23:36.692Z,28.67
2023-03-17T18:26:03.659Z,21.75
2023-03-17T18:28:30.730Z,18.75
2023-03-17T18:31:01.788Z,21.27
2023-03-17T18:33:28.263Z,20.67
2023-03-17T18:35:55.581Z,19.80
2023-03-17T18:38:22.133Z,21.67
2023-03-17T18:40:48.591Z,16.67
2023-03-17T18:43:15.383Z,17.20
2023-03-17T18:45:41.920Z,19.95
2023-03-17T18:48:08.415Z,18.27
2023-03-17T18:50:34.969Z,17.58
2023-03-17T18:53:02.389Z,15.80
2023-03-17T18:55:28.840Z,17.42
2023-03-17T18:57:55.230Z,17.17
2023-03-17T19:00:21.940Z,17.83
2023-03-17T19:02:48.458Z,16.83
2023-03-17T19:05:15.345Z,13.32
2023-03-17T19:07:42.288Z,16.33
2023-03-17T19:10:09.811Z,13.77
2023-03-17T19:12:37.141Z,12.15
2023-03-17T19:15:04.351Z,14.13
2023-03-17T19:17:31.342Z,13.82
2023-03-17T19:19:57.759Z,13.77
2023-03-17T19:22:24.288Z,13.88
2023-03-17T19:24:50.957Z,12.00
2023-03-17T19:27:17.810Z,10.57
2023-03-17T19:29:44.450Z,15.73
2023-03-17T19:32:10.908Z,9.98
2023-03-17T19:34:37.505Z,11.13
2023-03-17T19:37:03.964Z,11.23
2023-03-17T19:39:31.388Z,10.90
2023-03-17T19:41:59.158Z,9.18
2023-03-17T19:44:25.900Z,10.40
2023-03-17T19:46:52.444Z,10.80
2023-03-17T19:49:20.316Z,13.75
2023-03-17T19:51:47.313Z,11.98
2023-03-17T19:54:13.830Z,11.95
2023-03-17T19:56:40.495Z,14.35
2023-03-17T19:59:07.374Z,13.38
2023-03-17T20:01:33.921Z,11.70
2023-03-17T20:04:00.591Z,11.30
2023-03-17T20:06:27.315Z,13.18
2023-03-17T20:08:54.186Z,12.93
2023-03-17T20:11:20.638Z,11.38
2023-03-17T20:13:47.226Z,10.18
2023-03-17T20:16:13.766Z,12.20
2023-03-17T20:18:40.317Z,10.38
2023-03-17T20:21:11.680Z,10.75
2023-03-17T20:23:38.196Z,11.65
2023-03-17T20:26:04.733Z,10.77
2023-03-17T20:28:31.450Z,10.27
2023-03-17T20:30:59.590Z,9.05
2023-03-17T20:33:26.513Z,9.00
2023-03-17T20:35:53.023Z,10.15
2023-03-17T20:38:19.534Z,10.45
2023-03-17T20:40:46.045Z,10.18
2023-03-17T20:43:12.956Z,9.75
2023-03-17T20:45:39.477Z,9.32
2023-03-17T20:48:06.202Z,10.27
2023-03-17T20:50:33.436Z,11.63
2023-03-17T20:53:00.415Z,13.23
2023-03-17T20:55:27.419Z,13.13
2023-03-17T20:57:53.950Z,9.23
2023-03-17T21:00:23.299Z,11.02
2023-03-17T21:02:50.880Z,11.75
2023-03-17T21:05:19.827Z,9.98
2023-03-17T21:07:46.949Z,10.63
2023-03-17T21:10:14.202Z,9.35
2023-03-17T21:12:40.708Z,8.23
2023-03-17T21:15:09.595Z,9.00
2023-03-17T21:17:38.029Z,13.15
2023-03-17T21:20:06.027Z,10.73
2023-03-17T21:22:36.935Z,9.38
2023-03-17T21:25:04.308Z,9.02
2023-03-17T21:27:31.159Z,9.93
2023-03-17T21:29:57.602Z,8.55
2023-03-17T21:32:24.285Z,9.15
2023-03-17T21:34:50.823Z,9.93
2023-03-17T21:37:18.272Z,9.07
2023-03-17T21:39:45.817Z,8.98
2023-03-17T21:42:12.646Z,12.95
2023-03-17T21:44:40.616Z,11.80
2023-03-17T21:47:07.666Z,7.60
2023-03-17T21:49:34.198Z,11.43
2023-03-17T21:52:01.284Z,8.85
2023-03-17T21:54:28.414Z,7.82
2023-03-17T21:56:54.894Z,14.02
2023-03-17T21:59:21.365Z,10.27
2023-03-17T22:01:48.494Z,9.45
2023-03-17T22:04:15.588Z,9.23
2023-03-17T22:06:42.060Z,8.48
2023-03-17T22:09:10.887Z,8.88
2023-03-17T22:11:37.344Z,9.80
2023-03-17T22:14:03.839Z,12.77
2023-03-17T22:16:30.339Z,8.90
2023-03-17T22:18:56.829Z,9.38
2023-03-17T22:21:23.616Z,15.15
2023-03-17T22:23:50.062Z,15.05
2023-03-17T22:26:17.821Z,13.57
2023-03-17T22:28:44.784Z,9.80
2023-03-17T22:31:30.070Z,8.43
2023-03-17T22:33:57.669Z,8.32
2023-03-17T22:36:24.890Z,8.50
2023-03-17T22:38:51.507Z,9.82
2023-03-17T22:41:19.941Z,9.27
2023-03-17T22:43:47.071Z,8.07
2023-03-17T22:46:14.330Z,6.95
2023-03-17T22:48:40.863Z,9.38
2023-03-17T22:51:11.486Z,9.55
2023-03-17T22:53:38.421Z,10.25
2023-03-17T22:56:05.481Z,9.02
2023-03-17T22:58:32.129Z,11.50
2023-03-17T23:00:58.615Z,8.10
2023-03-17T23:03:26.013Z,7.40
2023-03-17T23:05:53.415Z,7.68
2023-03-17T23:08:20.318Z,7.45
2023-03-17T23:10:48.754Z,9.65
2023-03-17T23:13:16.095Z,7.38
2023-03-17T23:15:42.806Z,8.77
2023-03-17T23:18:10.290Z,8.38
2023-03-17T23:20:38.084Z,9.32
2023-03-17T23:23:04.565Z,6.72
2023-03-17T23:25:31.621Z,7.85
2023-03-17T23:27:58.104Z,9.15
2023-03-17T23:30:24.523Z,6.72
2023-03-17T23:32:51.110Z,10.07
2023-03-17T23:35:17.847Z,7.53
2023-03-17T23:37:44.244Z,8.45
2023-03-17T23:40:11.155Z,8.70
2023-03-17T23:42:38.064Z,7.88
2023-03-17T23:45:05.188Z,6.85
2023-03-17T23:47:31.612Z,9.60
2023-03-17T23:49:58.076Z,7.95
2023-03-17T23:52:24.493Z,9.95
2023-03-17T23:54:51.178Z,8.57
2023-03-17T23:57:17.625Z,6.97
2023-03-17T23:59:44.233Z,9.82
